Time;durP1;ratioP1;P1;durP2;ratioP2;P2;SDS_P1;SDS_P2;PMS_P1;PMS_P2;Temp;Humidity;BMP_temperature;BMP_pressure;BME280_temperature;BME280_humidity;BME280_pressure;Samples;Min_cycle;Max_cycle;Signal;HPM_P1;HPM_P2
2023/01/28 00:02:01;;;;;;;1.77;1.67;;;1.50;99.90;;;;;;5147342;27;20229;-72
2023/01/28 00:04:28;;;;;;;1.70;1.50;;;1.50;99.90;;;;;;5134844;27;20332;-72
2023/01/28 00:06:54;;;;;;;1.97;1.70;;;1.50;99.90;;;;;;5135221;27;20639;-72
2023/01/28 00:09:21;;;;;;;1.77;1.63;;;1.40;99.90;;;;;;5135053;27;20667;-71
2023/01/28 00:11:48;;;;;;;2.13;1.93;;;1.50;99.90;;;;;;5140852;27;20248;-71
2023/01/28 00:14:16;;;;;;;2.70;1.70;;;1.40;99.90;;;;;;5155602;27;20212;-72
2023/01/28 00:16:43;;;;;;;2.30;1.80;;;1.40;99.90;;;;;;5163091;27;20311;-72
2023/01/28 00:19:10;;;;;;;2.57;1.87;;;1.30;99.90;;;;;;5173180;27;20257;-72
2023/01/28 00:21:37;;;;;;;1.60;1.50;;;1.30;99.90;;;;;;5167642;27;20282;-72
2023/01/28 00:24:05;;;;;;;1.93;1.80;;;1.30;99.90;;;;;;5152290;27;20208;-72
2023/01/28 00:26:32;;;;;;;5.10;2.13;;;1.30;99.90;;;;;;5147926;27;20202;-72
2023/01/28 00:28:59;;;;;;;3.77;2.00;;;1.20;99.90;;;;;;5131554;27;20233;-72
2023/01/28 00:31:28;;;;;;;3.03;2.20;;;1.20;99.90;;;;;;5133096;27;20201;-72
2023/01/28 00:33:56;;;;;;;4.37;2.37;;;1.20;99.90;;;;;;5131310;27;20298;-72
2023/01/28 00:36:25;;;;;;;2.47;2.27;;;1.20;99.90;;;;;;5141624;27;20232;-73
2023/01/28 00:38:53;;;;;;;1.93;1.80;;;1.10;99.90;;;;;;5152034;27;20291;-72
2023/01/28 00:41:22;;;;;;;2.13;1.63;;;1.10;99.90;;;;;;5152117;27;20320;-72
2023/01/28 00:43:50;;;;;;;2.97;1.70;;;1.10;99.90;;;;;;5132631;27;20296;-72
2023/01/28 00:46:17;;;;;;;3.80;1.50;;;1.10;99.90;;;;;;5141120;27;20232;-72
2023/01/28 00:48:46;;;;;;;2.40;1.73;;;1.10;99.90;;;;;;5163797;27;20338;-72
2023/01/28 00:51:16;;;;;;;4.17;1.63;;;1.00;99.90;;;;;;5151727;27;20284;-72
2023/01/28 00:53:43;;;;;;;2.67;1.83;;;1.10;99.90;;;;;;5151348;27;20206;-72
2023/01/28 00:56:13;;;;;;;2.07;1.67;;;1.00;99.90;;;;;;5137353;27;20296;-72
2023/01/28 00:58:41;;;;;;;2.67;1.80;;;1.00;99.90;;;;;;5130801;27;20333;-72
2023/01/28 01:01:09;;;;;;;4.00;2.23;;;1.00;99.90;;;;;;5130625;27;20249;-72
2023/01/28 01:03:37;;;;;;;2.27;2.07;;;1.10;99.90;;;;;;5130135;27;20249;-72
2023/01/28 01:06:06;;;;;;;3.27;1.80;;;1.00;99.90;;;;;;5130365;27;20327;-72
2023/01/28 01:08:41;;;;;;;2.40;2.00;;;1.10;99.90;;;;;;5130812;27;20607;-72
2023/01/28 01:11:11;;;;;;;2.00;1.80;;;1.10;99.90;;;;;;5130672;27;20201;-72
2023/01/28 01:13:38;;;;;;;2.43;1.87;;;1.10;99.90;;;;;;5130254;27;20292;-72
2023/01/28 01:16:07;;;;;;;1.70;1.60;;;1.10;99.90;;;;;;5136849;27;20299;-72
2023/01/28 01:18:35;;;;;;;3.17;2.00;;;1.10;99.90;;;;;;5164624;27;20642;-72
2023/01/28 01:21:02;;;;;;;1.97;1.57;;;1.10;99.90;;;;;;5151251;27;20312;-72
2023/01/28 01:23:31;;;;;;;1.80;1.70;;;1.10;99.90;;;;;;5141337;27;20210;-72
2023/01/28 01:25:59;;;;;;;2.87;1.70;;;1.10;99.90;;;;;;5130402;27;20224;-72
2023/01/28 01:28:26;;;;;;;1.73;1.63;;;1.10;99.90;;;;;;5129803;27;20228;-72
2023/01/28 01:31:00;;;;;;;2.10;1.90;;;1.20;99.90;;;;;;5130114;27;20910;-72
2023/01/28 01:33:28;;;;;;;1.77;1.63;;;1.20;99.90;;;;;;5130247;27;20198;-72
2023/01/28 01:35:55;;;;;;;2.57;1.80;;;1.20;99.90;;;;;;5130654;27;20217;-72
2023/01/28 01:38:22;;;;;;;1.67;1.53;;;1.20;99.90;;;;;;5130429;27;20295;-72
2023/01/28 01:40:50;;;;;;;1.93;1.80;;;1.20;99.90;;;;;;5129746;27;20312;-72
2023/01/28 01:43:19;;;;;;;1.60;1.50;;;1.30;99.90;;;;;;5130225;27;20308;-72
2023/01/28 01:45:49;;;;;;;2.20;1.73;;;1.20;99.90;;;;;;5145142;27;20241;-73
2023/01/28 01:48:20;;;;;;;1.90;1.80;;;1.30;99.90;;;;;;5161305;27;20291;-73
2023/01/28 01:50:53;;;;;;;1.87;1.73;;;1.30;99.90;;;;;;5150879;27;20200;-73
2023/01/28 01:53:22;;;;;;;2.97;1.90;;;1.30;99.90;;;;;;5150899;27;20277;-73
2023/01/28 01:55:53;;;;;;;4.23;2.67;;;1.30;99.90;;;;;;5144848;27;20289;-73
2023/01/28 01:58:23;;;;;;;5.47;2.10;;;1.30;99.90;;;;;;5130156;27;20323;-73
2023/01/28 02:00:50;;;;;;;3.33;2.07;;;1.30;99.90;;;;;;5130065;27;20300;-73
2023/01/28 02:03:23;;;;;;;2.53;1.70;;;1.30;99.90;;;;;;5129857;27;20670;-73
2023/01/28 02:05:51;;;;;;;3.70;2.00;;;1.30;99.90;;;;;;5129629;27;20253;-72
2023/01/28 02:08:24;;;;;;;5.83;2.37;;;1.30;99.90;;;;;;5129519;27;20679;-72
2023/01/28 02:10:55;;;;;;;2.77;1.90;;;1.30;99.90;;;;;;5129728;27;20293;-72
2023/01/28 02:13:25;;;;;;;2.60;1.93;;;1.30;99.90;;;;;;5129687;27;20280;-72
2023/01/28 02:15:52;;;;;;;2.17;1.90;;;1.30;99.90;;;;;;5132078;27;20202;-72
2023/01/28 02:18:19;;;;;;;2.50;1.70;;;1.30;99.90;;;;;;5171119;27;20236;-72
2023/01/28 02:21:10;;;;;;;1.80;1.70;;;1.30;99.90;;;;;;5152254;27;20259;-73
2023/01/28 02:23:54;;;;;;;2.40;2.07;;;1.30;99.90;;;;;;5169494;27;20606;-72
2023/01/28 02:26:57;;;;;;;2.07;1.97;;;1.30;99.90;;;;;;5150286;27;20643;-72
2023/01/28 02:29:30;;;;;;;1.80;1.70;;;1.30;99.90;;;;;;5150314;27;20275;-71
2023/01/28 02:32:03;;;;;;;3.97;1.70;;;1.30;99.90;;;;;;5150086;27;20231;-72
2023/01/28 02:34:38;;;;;;;2.23;1.60;;;1.30;99.90;;;;;;5146054;27;20708;-72
2023/01/28 02:37:12;;;;;;;2.37;1.97;;;1.30;99.90;;;;;;5129041;27;20250;-72
2023/01/28 02:39:43;;;;;;;2.10;1.50;;;1.30;99.90;;;;;;5129008;27;20300;-72
2023/01/28 02:42:15;;;;;;;1.80;1.60;;;1.30;99.90;;;;;;5129547;27;20216;-72
2023/01/28 02:44:43;;;;;;;3.17;2.00;;;1.30;99.90;;;;;;5141023;27;20197;-73
2023/01/28 02:49:58;;;;;;;3.47;2.10;;;1.30;99.90;;;;;;5133551;27;20249;-73
2023/01/28 02:55:39;;;;;;;2.07;1.87;;;1.30;99.90;;;;;;5138131;27;20196;-73
2023/01/28 02:58:17;;;;;;;2.70;2.00;;;1.30;99.90;;;;;;5128901;27;20232;-73
2023/01/28 03:00:50;;;;;;;3.90;1.90;;;1.30;99.90;;;;;;5129527;27;20193;-73
2023/01/28 03:03:23;;;;;;;2.20;1.80;;;1.30;99.90;;;;;;5138542;27;20655;-73
2023/01/28 03:06:06;;;;;;;2.27;2.03;;;1.30;99.90;;;;;;5148778;27;20307;-73
2023/01/28 03:36:49;;;;;;;3.17;2.03;;;1.40;99.90;;;;;;5147987;27;20192;-72
2023/01/28 03:39:17;;;;;;;2.87;2.27;;;1.40;99.90;;;;;;5149401;27;20204;-72
2023/01/28 03:41:55;;;;;;;2.27;2.07;;;1.40;99.90;;;;;;5148861;27;20651;-72
2023/01/28 03:47:07;;;;;;;2.40;2.20;;;1.40;99.90;;;;;;5152521;27;20222;-72
2023/01/28 03:49:36;;;;;;;2.80;2.30;;;1.40;99.90;;;;;;5154131;27;20211;-72
2023/01/28 03:52:03;;;;;;;3.10;2.50;;;1.40;99.90;;;;;;5149466;27;20272;-72
2023/01/28 03:54:30;;;;;;;3.00;2.50;;;1.40;99.90;;;;;;5151191;27;20307;-73
2023/01/28 03:56:56;;;;;;;2.70;2.50;;;1.40;99.90;;;;;;5132289;27;20232;-72
2023/01/28 03:59:23;;;;;;;3.83;2.60;;;1.40;99.90;;;;;;5140627;27;20220;-72
2023/01/28 04:01:50;;;;;;;2.53;2.33;;;1.40;99.90;;;;;;5153300;27;20284;-72
2023/01/28 04:04:21;;;;;;;3.50;2.43;;;1.40;99.90;;;;;;5153151;27;20201;-71
2023/01/28 04:06:50;;;;;;;2.17;2.07;;;1.40;99.90;;;;;;5131807;27;20225;-71
2023/01/28 04:09:17;;;;;;;3.97;2.40;;;1.40;99.90;;;;;;5131980;27;20249;-71
2023/01/28 04:11:44;;;;;;;2.47;2.27;;;1.40;99.90;;;;;;5137597;27;20291;-71
2023/01/28 04:14:11;;;;;;;2.20;2.07;;;1.40;99.90;;;;;;5152796;27;20618;-71
2023/01/28 04:16:38;;;;;;;1.70;1.53;;;1.40;99.90;;;;;;5159263;27;20748;-71
2023/01/28 04:19:05;;;;;;;1.93;1.73;;;1.40;99.90;;;;;;5161322;27;20629;-71
2023/01/28 04:21:32;;;;;;;2.93;1.97;;;1.40;99.90;;;;;;5151962;27;20291;-72
2023/01/28 04:24:00;;;;;;;2.20;2.00;;;1.40;99.90;;;;;;5152334;27;20287;-71
2023/01/28 04:26:27;;;;;;;2.17;1.90;;;1.40;99.90;;;;;;5151597;27;20253;-71
2023/01/28 04:28:54;;;;;;;1.70;1.60;;;1.50;99.90;;;;;;5152503;27;20211;-71
2023/01/28 04:31:22;;;;;;;1.80;1.70;;;1.50;99.90;;;;;;5152526;27;20206;-71
2023/01/28 04:33:49;;;;;;;1.60;1.50;;;1.50;99.90;;;;;;5152056;27;20709;-71
2023/01/28 04:36:19;;;;;;;2.10;1.63;;;1.50;99.90;;;;;;5151067;27;20201;-71
2023/01/28 04:38:46;;;;;;;1.37;1.27;;;1.40;99.90;;;;;;5151766;27;20200;-71
2023/01/28 04:41:14;;;;;;;2.10;1.50;;;1.50;99.90;;;;;;5151970;27;20315;-71
2023/01/28 04:43:41;;;;;;;3.50;1.50;;;1.50;99.90;;;;;;5151529;27;20312;-71
2023/01/28 04:46:09;;;;;;;1.87;1.77;;;1.50;99.90;;;;;;5143990;27;20224;-71
2023/01/28 04:48:36;;;;;;;2.13;1.93;;;1.50;99.90;;;;;;5164600;27;20711;-71
2023/01/28 04:51:03;;;;;;;2.13;1.93;;;1.40;99.90;;;;;;5151915;27;20196;-71
2023/01/28 04:53:30;;;;;;;2.10;1.83;;;1.40;99.90;;;;;;5151902;27;20689;-72
2023/01/28 04:55:57;;;;;;;1.60;1.50;;;1.40;99.90;;;;;;5156096;27;20280;-73
2023/01/28 04:58:26;;;;;;;2.20;2.10;;;1.40;99.90;;;;;;5151616;27;20247;-72
2023/01/28 05:00:57;;;;;;;2.67;1.97;;;1.40;99.90;;;;;;5152420;27;20250;-73
2023/01/28 05:03:24;;;;;;;2.50;1.87;;;1.50;99.90;;;;;;5151123;27;20287;-72
2023/01/28 05:05:51;;;;;;;2.37;1.70;;;1.50;99.90;;;;;;5151987;27;20233;-73
2023/01/28 05:08:18;;;;;;;2.10;1.90;;;1.50;99.90;;;;;;5150870;27;20291;-73
2023/01/28 05:10:45;;;;;;;2.77;1.93;;;1.50;99.90;;;;;;5172763;27;20200;-73
2023/01/28 05:13:13;;;;;;;2.47;2.10;;;1.50;99.90;;;;;;5172494;27;20211;-73
2023/01/28 05:15:41;;;;;;;2.37;2.17;;;1.50;99.90;;;;;;5172530;27;20546;-73
2023/01/28 05:18:08;;;;;;;4.50;2.17;;;1.50;99.90;;;;;;5139963;27;20295;-73
2023/01/28 05:20:35;;;;;;;2.63;2.40;;;1.50;99.90;;;;;;5151548;27;20208;-73
2023/01/28 05:23:02;;;;;;;2.73;2.53;;;1.50;99.90;;;;;;5137495;27;20205;-73
2023/01/28 05:25:28;;;;;;;3.87;2.70;;;1.50;99.90;;;;;;5130618;27;20808;-73
2023/01/28 05:27:55;;;;;;;3.50;2.63;;;1.50;99.90;;;;;;5130414;27;20289;-72
2023/01/28 05:30:22;;;;;;;2.77;2.57;;;1.50;99.90;;;;;;5130260;27;20759;-71
2023/01/28 05:32:55;;;;;;;3.40;2.97;;;1.50;99.90;;;;;;5137008;27;20219;-74
2023/01/28 05:35:23;;;;;;;3.20;2.90;;;1.50;99.90;;;;;;5137637;27;20839;-73
2023/01/28 05:37:49;;;;;;;3.50;3.20;;;1.50;99.90;;;;;;5142046;27;20233;-72
2023/01/28 05:40:19;;;;;;;3.43;2.93;;;1.60;99.90;;;;;;5151000;27;20301;-72
2023/01/28 05:42:46;;;;;;;3.80;3.43;;;1.60;99.90;;;;;;5151064;27;20287;-71
2023/01/28 05:45:13;;;;;;;3.93;3.53;;;1.60;99.90;;;;;;5151243;27;20228;-71
2023/01/28 05:47:40;;;;;;;3.60;3.30;;;1.60;99.90;;;;;;5145168;27;21042;-71
2023/01/28 05:50:10;;;;;;;4.40;4.00;;;1.60;99.90;;;;;;5130104;27;20292;-71
2023/01/28 05:52:37;;;;;;;3.77;3.47;;;1.50;99.90;;;;;;5145011;27;21048;-72
2023/01/28 05:55:04;;;;;;;4.33;3.80;;;1.50;99.90;;;;;;5150877;27;20211;-71
2023/01/28 05:57:31;;;;;;;4.33;3.83;;;1.50;99.90;;;;;;5149208;27;20300;-71
2023/01/28 05:59:58;;;;;;;4.23;3.93;;;1.60;99.90;;;;;;5150683;27;20288;-72
2023/01/28 06:02:24;;;;;;;5.03;3.93;;;1.60;99.90;;;;;;5150609;27;20311;-71
2023/01/28 06:04:51;;;;;;;4.40;3.97;;;1.50;99.90;;;;;;5139585;27;20288;-71
2023/01/28 06:07:20;;;;;;;4.23;3.83;;;1.50;99.90;;;;;;5129983;27;20316;-71
2023/01/28 06:09:47;;;;;;;4.97;4.43;;;1.60;99.90;;;;;;5129400;27;20233;-70
2023/01/28 06:12:14;;;;;;;4.80;3.77;;;1.60;99.90;;;;;;5129435;27;20208;-70
2023/01/28 06:14:42;;;;;;;4.57;4.17;;;1.60;99.90;;;;;;5128474;27;20611;-70
2023/01/28 06:17:09;;;;;;;5.47;4.03;;;1.60;99.90;;;;;;5148354;27;20986;-70
2023/01/28 06:19:35;;;;;;;4.50;4.10;;;1.60;99.90;;;;;;5149516;27;20284;-70
2023/01/28 06:22:03;;;;;;;4.90;3.97;;;1.60;99.90;;;;;;5150447;27;20213;-73
2023/01/28 06:24:31;;;;;;;5.93;3.90;;;1.60;99.90;;;;;;5150404;27;20295;-74
2023/01/28 06:26:58;;;;;;;3.80;3.50;;;1.50;99.90;;;;;;5149692;27;20946;-74
2023/01/28 06:29:25;;;;;;;3.07;2.87;;;1.60;99.90;;;;;;5149387;27;20251;-73
2023/01/28 06:31:52;;;;;;;2.77;2.57;;;1.60;99.90;;;;;;5150399;27;20284;-73
2023/01/28 06:34:18;;;;;;;3.00;2.60;;;1.60;99.90;;;;;;5131099;27;20208;-71
2023/01/28 06:36:45;;;;;;;2.53;2.27;;;1.60;99.90;;;;;;5128890;27;20299;-72
2023/01/28 06:39:12;;;;;;;2.67;2.47;;;1.60;99.90;;;;;;5129291;27;20319;-71
2023/01/28 06:41:41;;;;;;;2.60;2.40;;;1.60;99.90;;;;;;5128973;27;20201;-71
2023/01/28 06:44:08;;;;;;;2.80;2.50;;;1.60;99.90;;;;;;5138447;27;20292;-71
2023/01/28 06:46:35;;;;;;;2.60;2.40;;;1.70;99.90;;;;;;5131413;27;20229;-71
2023/01/28 06:49:02;;;;;;;3.10;2.47;;;1.70;99.90;;;;;;5131697;27;20237;-72
2023/01/28 06:51:28;;;;;;;3.17;2.47;;;1.70;99.90;;;;;;5127218;27;20297;-72
2023/01/28 06:53:55;;;;;;;2.53;2.33;;;1.70;99.90;;;;;;5127044;27;20233;-72
2023/01/28 06:56:22;;;;;;;3.77;3.10;;;1.70;99.90;;;;;;5135993;27;20201;-72
2023/01/28 06:58:50;;;;;;;5.63;4.07;;;1.80;99.90;;;;;;5147212;27;20381;-73
2023/01/28 07:01:17;;;;;;;2.80;2.60;;;1.80;99.90;;;;;;5134536;27;20205;-72
2023/01/28 07:03:44;;;;;;;2.80;2.60;;;1.80;99.90;;;;;;5130111;27;20197;-73
2023/01/28 07:06:11;;;;;;;2.47;2.27;;;1.80;99.90;;;;;;5146662;27;20291;-73
2023/01/28 07:08:38;;;;;;;2.20;2.00;;;1.80;99.90;;;;;;5142760;27;20673;-70
2023/01/28 07:11:06;;;;;;;1.93;1.83;;;1.80;99.90;;;;;;5157151;27;20324;-72
2023/01/28 07:13:33;;;;;;;1.83;1.73;;;1.80;99.90;;;;;;5148447;27;20208;-72
2023/01/28 07:16:01;;;;;;;3.30;2.20;;;1.80;99.90;;;;;;5149956;27;20249;-72
2023/01/28 07:18:30;;;;;;;2.17;1.97;;;1.70;99.90;;;;;;5134591;27;21098;-72
2023/01/28 07:20:57;;;;;;;1.90;1.80;;;1.70;99.90;;;;;;5131658;27;20283;-72
2023/01/28 07:23:24;;;;;;;1.93;1.70;;;1.70;99.90;;;;;;5151385;27;20235;-72
2023/01/28 07:25:51;;;;;;;1.77;1.67;;;1.70;99.90;;;;;;5160715;27;20626;-72
2023/01/28 07:28:20;;;;;;;2.37;2.17;;;1.80;99.90;;;;;;5161518;27;20590;-72
2023/01/28 07:30:48;;;;;;;2.33;2.10;;;1.80;99.90;;;;;;5153403;27;20206;-72
2023/01/28 07:33:17;;;;;;;2.23;2.10;;;1.80;99.90;;;;;;5146075;27;20231;-73
2023/01/28 07:35:44;;;;;;;1.90;1.80;;;1.80;99.90;;;;;;5167000;27;20277;-72
2023/01/28 07:38:11;;;;;;;3.63;2.07;;;1.80;99.90;;;;;;5148083;27;20292;-72
2023/01/28 07:40:38;;;;;;;2.23;1.93;;;1.70;99.90;;;;;;5160165;27;20292;-72
2023/01/28 07:43:07;;;;;;;4.60;1.97;;;1.70;99.90;;;;;;5156132;27;20662;-72
2023/01/28 07:45:33;;;;;;;1.40;1.30;;;1.70;99.90;;;;;;5152255;27;20224;-72
2023/01/28 07:48:02;;;;;;;1.60;1.50;;;1.70;99.90;;;;;;5168974;27;20327;-72
2023/01/28 07:50:33;;;;;;;2.07;1.10;;;1.70;99.90;;;;;;5152254;27;20243;-72
2023/01/28 07:53:02;;;;;;;1.10;1.00;;;1.70;99.90;;;;;;5151977;27;20279;-71
2023/01/28 07:55:29;;;;;;;1.93;1.07;;;1.70;99.90;;;;;;5149542;27;20317;-72
2023/01/28 07:57:58;;;;;;;1.10;1.00;;;1.70;99.90;;;;;;5147943;27;20228;-72
2023/01/28 08:00:27;;;;;;;1.10;1.00;;;1.80;99.90;;;;;;5152849;27;20240;-72
2023/01/28 08:02:57;;;;;;;0.80;0.80;;;1.80;99.90;;;;;;5151999;27;20201;-72
2023/01/28 08:05:25;;;;;;;1.37;0.97;;;1.80;99.90;;;;;;5152179;27;20288;-72
2023/01/28 08:07:54;;;;;;;2.40;0.90;;;1.80;99.90;;;;;;5133761;27;20232;-72
2023/01/28 08:10:21;;;;;;;0.87;0.87;;;1.80;99.90;;;;;;5131597;27;20292;-72
2023/01/28 08:12:55;;;;;;;3.33;1.00;;;1.90;99.90;;;;;;5137014;27;20315;-72
2023/01/28 08:15:22;;;;;;;1.33;1.00;;;1.80;99.90;;;;;;5151899;27;20288;-72
2023/01/28 08:17:49;;;;;;;1.00;0.90;;;1.80;99.90;;;;;;5134145;27;20308;-72
2023/01/28 08:20:17;;;;;;;1.00;0.90;;;1.80;99.90;;;;;;5131708;27;20288;-72
2023/01/28 08:22:43;;;;;;;1.83;0.63;;;1.80;99.90;;;;;;5147000;27;20693;-72
2023/01/28 08:25:12;;;;;;;1.23;0.93;;;1.80;99.90;;;;;;5147571;27;20702;-72
2023/01/28 08:27:39;;;;;;;1.13;1.10;;;1.80;99.90;;;;;;5147296;27;20229;-72
2023/01/28 08:30:08;;;;;;;0.93;0.93;;;1.90;99.90;;;;;;5152214;27;20311;-72
2023/01/28 08:32:35;;;;;;;1.33;0.97;;;1.90;99.90;;;;;;5143661;27;20235;-72
2023/01/28 08:35:02;;;;;;;0.87;0.87;;;1.90;99.90;;;;;;5131093;27;20614;-72
2023/01/28 08:37:29;;;;;;;1.03;0.93;;;1.90;99.90;;;;;;5130604;27;20217;-72
2023/01/28 08:39:56;;;;;;;1.40;1.07;;;1.90;99.90;;;;;;5131164;27;20336;-72
2023/01/28 08:42:24;;;;;;;1.37;0.90;;;1.90;99.90;;;;;;5131310;27;20246;-73
2023/01/28 08:44:51;;;;;;;2.93;1.20;;;1.90;99.90;;;;;;5131135;27;20722;-72
2023/01/28 08:47:18;;;;;;;1.17;0.83;;;2.00;99.90;;;;;;5158073;27;20314;-72
2023/01/28 08:49:44;;;;;;;1.30;0.97;;;1.90;99.90;;;;;;5155442;27;20200;-72
2023/01/28 08:52:11;;;;;;;1.47;1.10;;;1.90;99.90;;;;;;5150639;27;20190;-72
2023/01/28 08:54:38;;;;;;;0.70;0.70;;;2.00;99.90;;;;;;5151478;27;20370;-71
2023/01/28 08:57:05;;;;;;;0.87;0.87;;;2.00;99.90;;;;;;5134477;27;20219;-71
2023/01/28 08:59:33;;;;;;;0.60;0.60;;;2.00;99.90;;;;;;5133294;27;20191;-71
2023/01/28 09:02:00;;;;;;;0.87;0.87;;;2.00;99.90;;;;;;5143185;27;20759;-71
2023/01/28 09:04:27;;;;;;;1.63;0.70;;;2.10;99.90;;;;;;5151129;27;20546;-71
2023/01/28 09:06:54;;;;;;;1.23;0.80;;;2.10;99.90;;;;;;5151075;27;20204;-71
2023/01/28 09:09:21;;;;;;;2.07;1.00;;;2.10;99.90;;;;;;5149265;27;20626;-71
2023/01/28 09:11:48;;;;;;;0.80;0.80;;;2.10;99.90;;;;;;5147052;27;20204;-71
2023/01/28 09:14:15;;;;;;;2.00;0.87;;;2.10;99.90;;;;;;5130514;27;20201;-71
2023/01/28 09:16:43;;;;;;;1.77;0.80;;;2.10;99.90;;;;;;5146923;27;20307;-71
2023/01/28 09:19:11;;;;;;;5.00;1.00;;;2.20;99.90;;;;;;5141772;27;20250;-71
2023/01/28 09:21:39;;;;;;;0.90;0.73;;;2.20;99.90;;;;;;5131994;27;20269;-71
2023/01/28 09:24:10;;;;;;;0.70;0.70;;;2.20;99.90;;;;;;5147030;27;20225;-71
2023/01/28 09:26:37;;;;;;;0.80;0.80;;;2.20;99.90;;;;;;5146730;27;20795;-71
2023/01/28 09:29:04;;;;;;;0.57;0.57;;;2.30;99.90;;;;;;5150825;27;21021;-71
2023/01/28 09:31:31;;;;;;;3.70;0.90;;;2.30;99.90;;;;;;5150789;27;20201;-71
2023/01/28 09:33:59;;;;;;;3.63;0.80;;;2.30;99.90;;;;;;5150307;27;20232;-71
2023/01/28 09:36:26;;;;;;;0.93;0.60;;;2.30;99.90;;;;;;5155287;27;20275;-71
2023/01/28 09:38:53;;;;;;;0.87;0.80;;;2.40;99.90;;;;;;5171377;27;20310;-71
2023/01/28 09:41:34;;;;;;;0.90;0.60;;;2.40;99.90;;;;;;5171707;27;20204;-72
2023/01/28 09:44:09;;;;;;;1.67;0.90;;;2.40;99.90;;;;;;5171586;27;20278;-71
2023/01/28 09:46:37;;;;;;;3.50;0.90;;;2.40;99.90;;;;;;5163554;27;20283;-71
2023/01/28 09:49:17;;;;;;;2.47;1.30;;;2.40;99.90;;;;;;5138498;27;20263;-71
2023/01/28 09:51:50;;;;;;;3.70;0.90;;;2.40;99.90;;;;;;5129473;27;20193;-71
2023/01/28 09:54:27;;;;;;;1.00;1.00;;;2.40;99.90;;;;;;5146388;27;20295;-71
2023/01/28 09:57:04;;;;;;;1.80;1.27;;;2.40;99.90;;;;;;5135792;27;20194;-71
2023/01/28 09:59:35;;;;;;;1.00;0.63;;;2.40;99.90;;;;;;5137989;27;20200;-71
2023/01/28 10:02:18;;;;;;;1.10;1.00;;;2.40;99.90;;;;;;5129648;27;20198;-71
2023/01/28 10:04:57;;;;;;;0.70;0.70;;;2.40;99.90;;;;;;5129180;27;20221;-71
2023/01/28 10:07:34;;;;;;;1.10;1.00;;;2.40;99.90;;;;;;5129572;27;20300;-71
2023/01/28 10:10:06;;;;;;;1.53;0.87;;;2.50;99.90;;;;;;5130114;27;20250;-71
2023/01/28 10:12:45;;;;;;;1.50;1.00;;;2.50;99.90;;;;;;5149597;27;20658;-71
2023/01/28 10:15:39;;;;;;;0.90;0.90;;;2.60;99.90;;;;;;5135082;27;20293;-71
2023/01/28 10:18:10;;;;;;;1.23;0.80;;;2.60;99.90;;;;;;5154857;27;20213;-71
2023/01/28 10:20:43;;;;;;;1.90;0.63;;;2.70;99.90;;;;;;5129307;27;20190;-71
2023/01/28 10:23:17;;;;;;;0.70;0.70;;;2.60;99.90;;;;;;5144542;27;20284;-71
2023/01/28 10:25:47;;;;;;;0.50;0.50;;;2.60;99.90;;;;;;5150087;27;20280;-72
2023/01/28 10:28:20;;;;;;;1.63;1.00;;;2.60;99.90;;;;;;5149721;27;20248;-72
2023/01/28 10:30:48;;;;;;;4.20;1.03;;;2.60;99.90;;;;;;5150237;27;20199;-72
2023/01/28 10:33:20;;;;;;;1.13;0.90;;;2.60;99.90;;;;;;5149170;27;20230;-72
2023/01/28 10:35:49;;;;;;;0.90;0.90;;;2.60;99.90;;;;;;5149830;27;20557;-72
2023/01/28 10:38:20;;;;;;;0.73;0.73;;;2.60;99.90;;;;;;5149835;27;20311;-72
2023/01/28 10:40:47;;;;;;;0.77;0.63;;;2.70;99.90;;;;;;5149742;27;20633;-72
2023/01/28 10:43:16;;;;;;;4.27;1.07;;;2.70;99.90;;;;;;5149991;27;20208;-72
2023/01/28 10:45:53;;;;;;;0.97;0.60;;;2.70;99.90;;;;;;5128720;27;20288;-72
2023/01/28 10:48:23;;;;;;;0.50;0.50;;;2.70;99.90;;;;;;5149475;27;20304;-72
2023/01/28 10:50:52;;;;;;;2.40;1.10;;;2.70;99.90;;;;;;5130225;27;20296;-72
2023/01/28 10:53:19;;;;;;;1.83;0.77;;;2.70;99.90;;;;;;5128825;27;20284;-72
2023/01/28 10:55:51;;;;;;;1.27;0.80;;;2.70;99.90;;;;;;5128873;27;20202;-72
2023/01/28 10:58:22;;;;;;;0.67;0.67;;;2.70;99.90;;;;;;5128092;27;20281;-72
2023/01/28 11:00:54;;;;;;;0.60;0.60;;;2.70;99.90;;;;;;5128422;27;20280;-72
2023/01/28 11:03:26;;;;;;;0.97;0.50;;;2.70;99.90;;;;;;5127425;27;20254;-72
2023/01/28 11:05:55;;;;;;;2.70;0.70;;;2.70;99.90;;;;;;5108442;27;20211;-72
2023/01/28 11:08:23;;;;;;;0.70;0.67;;;2.70;99.90;;;;;;5107392;28;20238;-73
2023/01/28 11:10:51;;;;;;;1.70;0.80;;;2.70;99.90;;;;;;5108195;28;20746;-72
2023/01/28 11:13:20;;;;;;;1.30;0.57;;;2.70;99.90;;;;;;5107688;28;20204;-72
2023/01/28 11:15:48;;;;;;;0.67;0.67;;;2.60;99.90;;;;;;5108816;27;20197;-72
2023/01/28 11:18:18;;;;;;;0.80;0.80;;;2.60;99.90;;;;;;5144507;27;20233;-72
2023/01/28 11:20:52;;;;;;;1.10;0.70;;;2.60;99.90;;;;;;5120836;28;20273;-72
2023/01/28 11:23:23;;;;;;;1.30;1.20;;;2.60;99.90;;;;;;5123933;28;20229;-72
2023/01/28 11:26:00;;;;;;;2.63;1.13;;;2.60;99.90;;;;;;5128463;28;20603;-72
2023/01/28 11:28:27;;;;;;;2.77;1.93;;;2.60;99.90;;;;;;5128180;27;20703;-72
2023/01/28 11:30:58;;;;;;;1.43;1.33;;;2.60;99.90;;;;;;5149306;27;20292;-72
2023/01/28 11:33:32;;;;;;;1.27;1.10;;;2.50;99.90;;;;;;5125855;27;20740;-72
2023/01/28 11:36:06;;;;;;;1.87;0.90;;;2.50;99.90;;;;;;5107931;28;20294;-72
2023/01/28 11:38:35;;;;;;;1.97;1.27;;;2.50;99.90;;;;;;5107390;28;20782;-72
2023/01/28 11:41:02;;;;;;;1.60;1.50;;;2.40;99.90;;;;;;5107979;28;20289;-71
2023/01/28 11:43:30;;;;;;;1.43;1.33;;;2.30;99.90;;;;;;5107731;28;20212;-71
2023/01/28 11:46:18;;;;;;;1.40;0.97;;;2.30;99.90;;;;;;5119577;27;20296;-71
2023/01/28 11:48:52;;;;;;;1.70;1.60;;;2.30;99.90;;;;;;5148322;27;20308;-71
2023/01/28 11:51:36;;;;;;;3.57;1.50;;;2.30;99.90;;;;;;5148788;27;20723;-71
2023/01/28 11:54:19;;;;;;;1.40;1.30;;;2.30;99.90;;;;;;5148849;27;20275;-71
2023/01/28 11:57:02;;;;;;;1.43;0.93;;;2.30;99.90;;;;;;5134892;27;20637;-71
2023/01/28 11:59:51;;;;;;;1.93;1.30;;;2.30;99.90;;;;;;5110897;28;20288;-72
2023/01/28 12:02:39;;;;;;;2.50;1.10;;;2.30;99.90;;;;;;5107627;28;20198;-71
2023/01/28 12:05:28;;;;;;;1.07;1.07;;;2.20;99.90;;;;;;5107457;28;20668;-71
2023/01/28 12:08:06;;;;;;;1.07;1.07;;;2.20;99.90;;;;;;5125148;27;20857;-71
2023/01/28 12:10:43;;;;;;;1.40;1.30;;;2.30;99.90;;;;;;5127465;28;20289;-71
2023/01/28 12:13:25;;;;;;;0.90;0.90;;;2.30;99.90;;;;;;5128961;27;20229;-71
2023/01/28 12:16:19;;;;;;;0.80;0.80;;;2.30;99.90;;;;;;5111563;27;20652;-71
2023/01/28 12:19:12;;;;;;;1.67;1.10;;;2.30;99.90;;;;;;5115073;27;20289;-71
2023/01/28 12:21:58;;;;;;;1.80;1.17;;;2.40;99.90;;;;;;5131345;27;20668;-71
2023/01/28 12:24:38;;;;;;;0.50;0.43;;;2.40;99.90;;;;;;5131439;27;20288;-71
2023/01/28 12:27:15;;;;;;;1.73;0.50;;;2.40;99.90;;;;;;5131516;27;20292;-71
2023/01/28 12:29:52;;;;;;;1.03;0.60;;;2.40;99.90;;;;;;5131105;27;20706;-71
2023/01/28 12:32:39;;;;;;;0.60;0.40;;;2.50;99.90;;;;;;5130541;27;20197;-71
2023/01/28 12:35:24;;;;;;;1.40;0.50;;;2.50;99.90;;;;;;5131389;27;20747;-71
2023/01/28 12:38:01;;;;;;;1.77;0.67;;;2.50;99.90;;;;;;5131433;27;20257;-71
2023/01/28 12:40:59;;;;;;;0.77;0.73;;;2.50;99.90;;;;;;5128391;27;20214;-71
2023/01/28 12:43:47;;;;;;;0.93;0.60;;;2.50;99.90;;;;;;5128482;27;20629;-71
2023/01/28 12:46:24;;;;;;;0.57;0.57;;;2.40;99.90;;;;;;5119526;27;20204;-71
2023/01/28 12:48:55;;;;;;;1.80;0.50;;;2.40;99.90;;;;;;5142286;27;20225;-71
2023/01/28 12:51:27;;;;;;;0.43;0.30;;;2.40;99.90;;;;;;5130925;27;20276;-71
2023/01/28 12:54:00;;;;;;;2.40;0.30;;;2.40;99.90;;;;;;5114113;27;20204;-71
2023/01/28 12:56:32;;;;;;;0.90;0.40;;;2.50;99.90;;;;;;5131098;27;20276;-71
2023/01/28 12:59:04;;;;;;;0.50;0.50;;;2.50;99.90;;;;;;5130555;27;20233;-71
2023/01/28 13:01:40;;;;;;;0.50;0.43;;;2.60;99.90;;;;;;5130750;27;20274;-71
2023/01/28 13:04:13;;;;;;;1.00;0.70;;;2.40;99.90;;;;;;5130829;27;20259;-71
2023/01/28 13:06:44;;;;;;;0.60;0.60;;;2.40;99.90;;;;;;5124335;27;20289;-71
2023/01/28 13:09:16;;;;;;;0.57;0.57;;;2.50;99.90;;;;;;5110206;28;20222;-71
2023/01/28 13:11:43;;;;;;;1.43;0.33;;;2.50;99.90;;;;;;5110286;28;20186;-71
2023/01/28 13:14:13;;;;;;;1.10;0.60;;;2.60;99.90;;;;;;5113067;27;20694;-71
2023/01/28 13:16:40;;;;;;;2.60;0.80;;;2.60;99.90;;;;;;5138934;27;20204;-71
2023/01/28 13:19:20;;;;;;;2.20;0.50;;;2.70;99.90;;;;;;5139224;27;20537;-71
2023/01/28 13:21:48;;;;;;;0.93;0.50;;;2.70;99.90;;;;;;5126469;27;20280;-71
2023/01/28 13:24:23;;;;;;;1.57;0.87;;;2.80;99.90;;;;;;5130314;27;20254;-71
2023/01/28 13:26:52;;;;;;;1.10;1.10;;;2.80;99.90;;;;;;5120928;27;20272;-71
2023/01/28 13:29:28;;;;;;;1.30;0.90;;;2.70;99.90;;;;;;5109938;28;20238;-71
2023/01/28 13:31:59;;;;;;;1.03;0.93;;;2.60;99.90;;;;;;5109897;28;20198;-71
2023/01/28 13:34:32;;;;;;;2.50;0.97;;;2.60;99.90;;;;;;5110061;28;20194;-71
2023/01/28 13:37:03;;;;;;;1.03;0.90;;;2.60;99.90;;;;;;5109589;28;20354;-71
2023/01/28 13:39:34;;;;;;;1.00;0.57;;;2.50;99.90;;;;;;5111094;27;20202;-71
2023/01/28 13:42:21;;;;;;;0.57;0.57;;;2.50;99.90;;;;;;5129923;27;20236;-71
2023/01/28 13:44:50;;;;;;;0.50;0.50;;;2.50;99.90;;;;;;5130137;27;20203;-71
2023/01/28 13:47:25;;;;;;;0.90;0.80;;;2.50;99.90;;;;;;5130145;27;20251;-71
2023/01/28 13:49:57;;;;;;;0.83;0.77;;;2.50;99.90;;;;;;5113407;27;20220;-71
2023/01/28 13:52:30;;;;;;;2.33;0.63;;;2.50;99.90;;;;;;5129643;27;20201;-71